Otagawa — JD3046 — position and weather

sailwx.info

Track history (hours):
 
Tides and Currents Weather Stations Pressure Air Temp Water Temp Dewpoint Dewpoint Depression Visibility Wind Speed Wind Dir Waves Ship Positions

Otagawa

Last reported at 2016-Sep-26 20:27 UTC. Time now 2016-Oct-01 22:18 UTC.
Position N 35°16' E 140°32'.

Length 70 m; draft 4 m.

Type: Ship. MMSI: 431001328.

Date/timePositionNaut miles runAvg speedWind from/ knotsBaromVisibWave heightAir tempDewpointWater temp
2016-Sep-26 20:27N 35°16' E 140°32'41 8.4
2016-Sep-26 15:33N 35°03' E 139°44'2110.6
2016-Sep-26 13:33N 35°24' E 139°41'1 0.4
2016-Sep-26 11:33N 35°23' E 139°40'4 1.2
2016-Sep-26 08:33N 35°27' E 139°40'1 0.2
2016-Sep-26 02:33N 35°27' E 139°42'0 0.1
2016-Sep-26 01:33N 35°27' E 139°42'9 8.7
2016-Sep-26 00:33N 35°18' E 139°44'27 8.8
2016-Sep-25 21:28N 34°53' E 139°56'4010.1
2016-Sep-25 17:27N 35°18' E 140°34'1011.1
2016-Sep-25 16:33N 35°26' E 140°41'1211.3
2016-Sep-25 15:32N 35°36' E 140°49'1410.8
2016-Sep-25 14:12N 35°48' E 140°57'  
2016-Sep-19 18:18N 35°15' E 140°32'17 8.8
2016-Sep-19 16:24N 35°03' E 140°18'1910.5
2016-Sep-19 14:33N 34°53' E 139°58'11 9.2
2016-Sep-19 13:19N 34°57' E 139°45'810.6
2016-Sep-19 12:34N 35°05' E 139°45'1211.5
2016-Sep-19 11:33N 35°17' E 139°45'11 5.6
2016-Sep-19 09:34N 35°27' E 139°40'0 0.0
2016-Sep-19 07:34N 35°27' E 139°40'0 0.0
2016-Sep-19 06:34N 35°27' E 139°40'4 1.4
2016-Sep-19 03:34N 35°23' E 139°40'0 0.1
2016-Sep-19 02:33N 35°23' E 139°40'0 0.0
2016-Sep-19 00:33N 35°23' E 139°40'26 5.0
2016-Sep-18 19:23N 34°57' E 139°44'37 8.6
2016-Sep-18 15:05N 35°09' E 140°27'6 9.0
2016-Sep-18 14:24N 35°14' E 140°31'  
Track history (hours):
 
Tides and Currents Weather Stations Pressure Air Temp Water Temp Dewpoint Dewpoint Depression Visibility Wind Speed Wind Dir Waves Ship Positions

Otagawa

Last reported at 2016-Sep-26 20:27 UTC. Time now 2016-Oct-01 22:18 UTC.
Position N 35°16' E 140°32'.

Length 70 m; draft 4 m.

Type: Ship. MMSI: 431001328.

Date/timePositionNaut miles runAvg speedWind from/ knotsBaromVisibWave heightAir tempDewpointWater temp
2016-Sep-26 20:27N 35°16' E 140°32'41 8.4
2016-Sep-26 15:33N 35°03' E 139°44'2110.6
2016-Sep-26 13:33N 35°24' E 139°41'1 0.4
2016-Sep-26 11:33N 35°23' E 139°40'4 1.2
2016-Sep-26 08:33N 35°27' E 139°40'1 0.2
2016-Sep-26 02:33N 35°27' E 139°42'0 0.1
2016-Sep-26 01:33N 35°27' E 139°42'9 8.7
2016-Sep-26 00:33N 35°18' E 139°44'27 8.8
2016-Sep-25 21:28N 34°53' E 139°56'4010.1
2016-Sep-25 17:27N 35°18' E 140°34'1011.1
2016-Sep-25 16:33N 35°26' E 140°41'1211.3
2016-Sep-25 15:32N 35°36' E 140°49'1410.8
2016-Sep-25 14:12N 35°48' E 140°57'  
2016-Sep-19 18:18N 35°15' E 140°32'17 8.8
2016-Sep-19 16:24N 35°03' E 140°18'1910.5
2016-Sep-19 14:33N 34°53' E 139°58'11 9.2
2016-Sep-19 13:19N 34°57' E 139°45'810.6
2016-Sep-19 12:34N 35°05' E 139°45'1211.5
2016-Sep-19 11:33N 35°17' E 139°45'11 5.6
2016-Sep-19 09:34N 35°27' E 139°40'0 0.0
2016-Sep-19 07:34N 35°27' E 139°40'0 0.0
2016-Sep-19 06:34N 35°27' E 139°40'4 1.4
2016-Sep-19 03:34N 35°23' E 139°40'0 0.1
2016-Sep-19 02:33N 35°23' E 139°40'0 0.0
2016-Sep-19 00:33N 35°23' E 139°40'26 5.0
2016-Sep-18 19:23N 34°57' E 139°44'37 8.6
2016-Sep-18 15:05N 35°09' E 140°27'6 9.0
2016-Sep-18 14:24N 35°14' E 140°31'  

Dump ship's entire track history